Time;durP1;ratioP1;P1;durP2;ratioP2;P2;SDS_P1;SDS_P2;PMS_P1;PMS_P2;Temp;Humidity;BMP_temperature;BMP_pressure;BME280_temperature;BME280_humidity;BME280_pressure;Samples;Min_cycle;Max_cycle;Signal;HPM_P1;HPM_P2
2021/08/16 00:01:40;;;;;;;18.97;10.33;;;17.50;94.20;;;;;;5033200;28;20049;-69
2021/08/16 00:04:06;;;;;;;17.70;8.87;;;17.50;94.30;;;;;;5034231;28;20057;-68
2021/08/16 00:06:32;;;;;;;19.03;9.63;;;17.50;94.30;;;;;;5034033;28;20402;-68
2021/08/16 00:08:57;;;;;;;18.67;8.70;;;17.50;94.30;;;;;;5032763;28;20398;-69
2021/08/16 00:11:23;;;;;;;17.00;9.13;;;17.50;94.30;;;;;;5033963;28;20435;-69
2021/08/16 00:13:48;;;;;;;17.10;9.67;;;17.50;94.30;;;;;;5033714;28;20458;-68
2021/08/16 00:16:14;;;;;;;18.37;10.43;;;17.60;94.40;;;;;;5033315;28;20068;-68
2021/08/16 00:18:40;;;;;;;24.30;12.40;;;17.60;94.50;;;;;;5033062;28;20050;-69
2021/08/16 00:21:06;;;;;;;21.83;10.97;;;17.60;94.60;;;;;;5034052;28;20057;-68
2021/08/16 00:23:33;;;;;;;20.97;10.43;;;17.50;94.80;;;;;;5033529;28;20041;-66
2021/08/16 00:26:01;;;;;;;17.20;9.60;;;17.50;95.00;;;;;;5033664;28;20458;-67
2021/08/16 00:28:27;;;;;;;18.97;9.57;;;17.50;95.10;;;;;;5034204;28;20099;-67
2021/08/16 00:30:52;;;;;;;22.33;9.90;;;17.40;95.30;;;;;;5033119;28;20073;-67
2021/08/16 00:33:18;;;;;;;14.80;9.20;;;17.40;95.40;;;;;;5033786;28;20060;-67
2021/08/16 00:35:44;;;;;;;15.33;9.20;;;17.40;95.50;;;;;;5033665;28;20049;-67
2021/08/16 00:38:09;;;;;;;21.30;11.20;;;17.40;95.60;;;;;;5033084;28;20045;-67
2021/08/16 00:40:35;;;;;;;20.17;9.03;;;17.40;95.70;;;;;;5034252;28;20057;-68
2021/08/16 00:43:00;;;;;;;17.77;9.30;;;17.40;95.80;;;;;;5033658;28;20054;-67
2021/08/16 00:45:27;;;;;;;17.80;8.43;;;17.30;95.90;;;;;;5033212;28;20077;-68
2021/08/16 00:47:53;;;;;;;16.57;8.40;;;17.30;96.00;;;;;;5033432;28;20047;-68
2021/08/16 00:50:18;;;;;;;13.60;7.77;;;17.30;96.10;;;;;;5033501;28;20132;-68
2021/08/16 00:52:44;;;;;;;14.30;7.97;;;17.30;96.20;;;;;;5032643;28;20056;-68
2021/08/16 00:55:12;;;;;;;18.40;8.40;;;17.30;96.20;;;;;;5033749;28;20551;-68
2021/08/16 00:57:38;;;;;;;18.93;8.73;;;17.30;96.30;;;;;;5033633;28;20037;-68
2021/08/16 01:00:08;;;;;;;17.50;8.47;;;17.30;96.30;;;;;;5032997;28;20056;-68
2021/08/16 01:02:39;;;;;;;24.03;10.53;;;17.30;96.40;;;;;;5033460;28;20045;-68
2021/08/16 01:05:06;;;;;;;18.73;9.40;;;17.30;96.40;;;;;;5032691;28;20050;-68
2021/08/16 01:07:33;;;;;;;21.87;11.03;;;17.20;96.40;;;;;;5033260;28;20430;-68
2021/08/16 01:09:59;;;;;;;18.23;9.20;;;17.20;96.50;;;;;;5033144;28;20437;-68
2021/08/16 01:12:27;;;;;;;23.80;9.83;;;17.20;96.50;;;;;;5032465;28;20410;-68
2021/08/16 01:14:52;;;;;;;17.27;9.30;;;17.20;96.60;;;;;;5032838;28;20457;-68
2021/08/16 01:17:18;;;;;;;21.73;11.33;;;17.20;96.60;;;;;;5032910;28;20053;-68
2021/08/16 01:19:44;;;;;;;20.70;10.13;;;17.10;96.70;;;;;;5032175;28;20409;-68
2021/08/16 01:22:10;;;;;;;23.73;9.70;;;17.10;96.70;;;;;;5032946;28;20124;-68
2021/08/16 01:24:36;;;;;;;24.80;9.10;;;17.10;97.10;;;;;;5033306;28;20053;-68
2021/08/16 01:27:07;;;;;;;28.23;10.63;;;17.10;96.80;;;;;;5032061;28;20395;-68
2021/08/16 01:29:32;;;;;;;19.20;8.83;;;17.10;96.80;;;;;;5032981;28;20045;-68
2021/08/16 01:32:02;;;;;;;21.03;8.90;;;17.00;96.90;;;;;;5032519;28;20107;-67
2021/08/16 01:34:30;;;;;;;22.80;9.13;;;17.10;96.90;;;;;;5032170;28;20053;-67
2021/08/16 01:36:56;;;;;;;20.43;8.20;;;17.00;97.00;;;;;;5032660;28;20076;-68
2021/08/16 01:39:22;;;;;;;21.83;8.20;;;17.00;97.00;;;;;;5032988;28;20124;-68
2021/08/16 01:41:48;;;;;;;22.70;7.93;;;17.00;97.00;;;;;;5031948;28;20080;-68
2021/08/16 01:44:22;;;;;;;24.13;7.90;;;17.00;97.10;;;;;;5032763;28;20474;-68
2021/08/16 01:46:48;;;;;;;18.97;8.27;;;17.00;97.10;;;;;;5032403;28;20402;-67
2021/08/16 01:49:14;;;;;;;22.80;8.73;;;17.00;97.10;;;;;;5031988;28;20080;-68
2021/08/16 01:51:41;;;;;;;28.60;11.87;;;17.00;97.10;;;;;;5032407;28;20049;-69
2021/08/16 01:54:09;;;;;;;28.83;13.87;;;17.00;97.10;;;;;;5031889;28;20156;-68
2021/08/16 01:56:35;;;;;;;28.70;13.73;;;17.00;97.20;;;;;;5032470;28;20094;-68
2021/08/16 01:59:01;;;;;;;28.43;16.30;;;17.00;97.20;;;;;;5032178;28;20046;-67
2021/08/16 02:01:27;;;;;;;34.43;15.90;;;17.00;97.20;;;;;;5031539;28;20064;-68
2021/08/16 02:03:53;;;;;;;31.20;15.03;;;17.00;97.20;;;;;;5032225;28;20059;-68
2021/08/16 02:06:22;;;;;;;33.13;15.40;;;17.00;97.20;;;;;;5032391;28;20080;-68
2021/08/16 02:08:51;;;;;;;31.47;12.93;;;17.00;97.20;;;;;;5031198;28;20556;-68
2021/08/16 02:11:17;;;;;;;28.30;12.53;;;17.00;97.30;;;;;;5032148;28;20073;-68
2021/08/16 02:13:42;;;;;;;27.67;10.30;;;17.00;97.30;;;;;;5031959;28;20056;-67
2021/08/16 02:16:08;;;;;;;27.27;9.23;;;17.00;97.30;;;;;;5031341;28;20128;-67
2021/08/16 02:18:34;;;;;;;26.70;8.30;;;17.00;97.30;;;;;;5031870;28;20060;-67
2021/08/16 02:21:00;;;;;;;25.90;9.23;;;17.00;97.30;;;;;;5031961;28;20049;-68
2021/08/16 02:23:26;;;;;;;29.40;9.00;;;17.00;97.30;;;;;;5031723;28;20053;-68
2021/08/16 02:25:51;;;;;;;23.37;7.87;;;17.00;97.30;;;;;;5031775;28;20073;-67
2021/08/16 02:28:17;;;;;;;21.60;7.53;;;17.00;97.30;;;;;;5031863;28;20072;-68
2021/08/16 02:30:44;;;;;;;34.70;10.13;;;17.00;97.30;;;;;;5030917;28;20060;-68
2021/08/16 02:33:10;;;;;;;21.37;8.23;;;17.00;97.40;;;;;;5032217;28;20041;-68
2021/08/16 02:35:36;;;;;;;23.77;7.70;;;17.00;97.40;;;;;;5032128;28;20060;-68
2021/08/16 02:38:02;;;;;;;27.73;8.33;;;17.00;97.40;;;;;;5031030;28;20045;-68
2021/08/16 02:40:27;;;;;;;24.57;7.77;;;17.00;97.40;;;;;;5031987;28;20056;-67
2021/08/16 02:42:53;;;;;;;22.90;8.00;;;17.10;97.50;;;;;;5031188;28;20045;-67
2021/08/16 02:45:19;;;;;;;25.53;8.67;;;17.10;97.50;;;;;;5031108;28;20095;-68
2021/08/16 02:47:44;;;;;;;23.10;8.03;;;17.10;97.50;;;;;;5031790;28;20056;-67
2021/08/16 02:50:10;;;;;;;29.80;9.00;;;17.00;97.40;;;;;;5032046;28;20050;-67
2021/08/16 02:52:36;;;;;;;23.70;8.83;;;17.10;97.50;;;;;;5031210;28;20046;-67
2021/08/16 02:55:03;;;;;;;29.23;9.33;;;17.00;97.50;;;;;;5031529;28;20045;-68
2021/08/16 02:57:29;;;;;;;24.47;8.27;;;17.00;97.50;;;;;;5030914;28;20501;-67
2021/08/16 02:59:55;;;;;;;25.77;7.60;;;17.00;97.50;;;;;;5031395;28;20053;-68
2021/08/16 03:02:20;;;;;;;28.20;8.23;;;17.00;97.60;;;;;;5031578;28;20371;-68
2021/08/16 03:04:46;;;;;;;23.90;8.57;;;17.00;97.60;;;;;;5030853;28;20049;-68
2021/08/16 03:07:12;;;;;;;29.50;8.33;;;17.00;97.60;;;;;;5031582;28;20384;-67
2021/08/16 03:09:37;;;;;;;29.10;8.30;;;17.00;97.60;;;;;;5031578;28;20057;-68
2021/08/16 03:12:04;;;;;;;20.93;7.93;;;17.00;97.60;;;;;;5030574;28;20103;-68
2021/08/16 03:14:29;;;;;;;26.97;7.83;;;17.00;97.70;;;;;;5031447;28;20128;-68
2021/08/16 03:16:55;;;;;;;32.40;9.47;;;17.00;97.70;;;;;;5031144;28;20133;-68
2021/08/16 03:19:21;;;;;;;23.80;8.57;;;17.00;97.70;;;;;;5030734;28;20105;-68
2021/08/16 03:21:47;;;;;;;26.77;8.30;;;17.00;97.70;;;;;;5031378;28;20053;-68
2021/08/16 03:24:12;;;;;;;25.27;8.20;;;17.00;97.80;;;;;;5031724;28;20057;-67
2021/08/16 03:26:38;;;;;;;26.23;8.30;;;17.00;97.80;;;;;;5030725;28;20091;-67
2021/08/16 03:29:04;;;;;;;26.47;9.57;;;17.00;97.80;;;;;;5031222;28;20490;-68
2021/08/16 03:31:29;;;;;;;27.53;9.07;;;17.00;97.80;;;;;;5031309;28;20522;-68
2021/08/16 03:33:55;;;;;;;33.17;9.07;;;17.00;97.80;;;;;;5030484;28;20072;-68
2021/08/16 03:36:21;;;;;;;28.30;9.00;;;17.00;97.80;;;;;;5031450;28;20124;-67
2021/08/16 03:38:46;;;;;;;25.83;8.53;;;17.00;97.90;;;;;;5030992;28;20133;-68
2021/08/16 03:41:13;;;;;;;28.00;9.00;;;16.90;97.90;;;;;;5030439;28;20045;-67
2021/08/16 03:43:39;;;;;;;31.63;8.60;;;17.00;97.90;;;;;;5030905;28;20045;-68
2021/08/16 03:46:05;;;;;;;27.93;9.10;;;16.90;97.90;;;;;;5031479;28;20045;-67
2021/08/16 03:48:30;;;;;;;31.80;9.67;;;16.90;98.00;;;;;;5030571;28;20448;-68
2021/08/16 03:50:56;;;;;;;25.73;8.97;;;17.00;98.30;;;;;;5030880;28;20146;-68
2021/08/16 03:53:22;;;;;;;23.90;8.57;;;17.00;98.00;;;;;;5031237;28;20041;-68
2021/08/16 03:55:47;;;;;;;22.70;9.07;;;17.00;98.00;;;;;;5032892;28;20129;-68
2021/08/16 03:58:13;;;;;;;30.70;9.33;;;17.00;98.00;;;;;;5034553;28;20061;-67
2021/08/16 04:00:40;;;;;;;24.83;9.07;;;17.00;98.00;;;;;;5033756;28;20376;-68
2021/08/16 04:03:06;;;;;;;25.13;10.70;;;16.90;98.00;;;;;;5034484;28;20568;-68
2021/08/16 04:05:32;;;;;;;26.33;9.80;;;17.00;98.00;;;;;;5034717;28;20502;-67
2021/08/16 04:07:57;;;;;;;21.40;8.80;;;17.00;98.00;;;;;;5033728;28;20053;-68
2021/08/16 04:10:23;;;;;;;22.23;8.60;;;16.90;98.00;;;;;;5034414;28;20502;-68
2021/08/16 04:12:49;;;;;;;20.77;8.70;;;17.00;98.00;;;;;;5034250;28;20202;-68
2021/08/16 04:15:18;;;;;;;18.40;7.80;;;17.00;97.90;;;;;;5033530;28;20124;-68
2021/08/16 04:17:44;;;;;;;22.30;7.80;;;16.90;97.80;;;;;;5034060;28;20063;-67
2021/08/16 04:20:11;;;;;;;25.20;8.77;;;16.90;97.80;;;;;;5034073;28;20057;-68
2021/08/16 04:22:38;;;;;;;19.63;8.40;;;16.90;97.80;;;;;;5033712;28;20084;-67
2021/08/16 04:25:06;;;;;;;21.83;9.30;;;16.90;97.90;;;;;;5034038;28;20494;-67
2021/08/16 04:27:33;;;;;;;19.53;8.93;;;16.90;97.90;;;;;;5034027;28;20050;-67
2021/08/16 04:29:59;;;;;;;23.50;9.30;;;16.90;97.90;;;;;;5032994;28;20450;-67
2021/08/16 04:32:25;;;;;;;16.17;8.10;;;16.90;97.90;;;;;;5033942;28;20052;-68
2021/08/16 04:34:51;;;;;;;16.90;8.17;;;16.80;97.90;;;;;;5033838;28;20045;-67
2021/08/16 04:37:17;;;;;;;14.77;8.00;;;16.80;97.90;;;;;;5033336;28;20061;-68
2021/08/16 04:39:42;;;;;;;21.10;8.13;;;16.80;97.90;;;;;;5033726;28;20045;-67
2021/08/16 04:42:08;;;;;;;15.60;6.97;;;16.80;97.90;;;;;;5033739;28;20057;-67
2021/08/16 04:44:34;;;;;;;16.47;7.20;;;16.80;97.90;;;;;;5033397;28;20093;-67
2021/08/16 04:46:59;;;;;;;9.70;5.83;;;16.70;97.80;;;;;;5033453;28;20054;-67
2021/08/16 04:49:25;;;;;;;13.23;5.77;;;16.70;97.90;;;;;;5033761;28;20049;-67
2021/08/16 04:51:51;;;;;;;12.57;6.30;;;16.70;97.80;;;;;;5032734;28;20041;-68
2021/08/16 04:54:16;;;;;;;15.83;6.20;;;16.70;97.80;;;;;;5033534;28;20454;-67
2021/08/16 04:56:43;;;;;;;8.83;5.73;;;16.70;97.70;;;;;;5033243;28;20057;-68
2021/08/16 04:59:09;;;;;;;11.07;5.33;;;16.70;97.70;;;;;;5032987;28;20057;-68
2021/08/16 05:01:36;;;;;;;6.83;4.83;;;16.70;97.70;;;;;;5033576;28;20049;-67
2021/08/16 05:04:01;;;;;;;10.70;5.20;;;16.70;97.70;;;;;;5032428;28;20049;-67
2021/08/16 05:06:32;;;;;;;8.90;4.80;;;16.70;97.60;;;;;;5033114;28;20050;-67
2021/08/16 05:09:03;;;;;;;10.93;5.23;;;16.70;97.50;;;;;;5032992;28;20877;-68
2021/08/16 05:11:30;;;;;;;7.40;4.40;;;16.70;97.50;;;;;;5032700;28;20128;-67
2021/08/16 05:13:55;;;;;;;8.70;4.13;;;16.60;97.40;;;;;;5033159;28;20459;-67
2021/08/16 05:16:24;;;;;;;11.40;4.50;;;16.60;97.30;;;;;;5033384;28;20132;-67
2021/08/16 05:18:51;;;;;;;6.73;4.47;;;16.60;97.30;;;;;;5032215;28;20077;-67
2021/08/16 05:21:17;;;;;;;9.53;3.90;;;16.50;97.10;;;;;;5033142;28;20490;-68
2021/08/16 05:23:44;;;;;;;10.53;4.40;;;16.50;97.10;;;;;;5032691;28;20064;-67
2021/08/16 05:26:09;;;;;;;8.17;3.90;;;16.40;97.00;;;;;;5032462;28;20453;-67
2021/08/16 05:28:48;;;;;;;9.10;4.10;;;16.40;97.10;;;;;;5032777;28;20140;-67
2021/08/16 05:31:14;;;;;;;11.67;4.20;;;16.50;97.20;;;;;;5033106;28;20152;-67
2021/08/16 05:33:40;;;;;;;10.20;4.17;;;16.50;97.20;;;;;;5031466;28;20506;-67
2021/08/16 05:36:05;;;;;;;11.20;4.73;;;16.50;97.20;;;;;;5032690;28;20120;-67
2021/08/16 05:38:31;;;;;;;8.47;4.23;;;16.50;97.20;;;;;;5032899;28;20045;-67
2021/08/16 05:40:57;;;;;;;10.40;4.50;;;16.50;97.20;;;;;;5031768;28;20041;-67
2021/08/16 05:43:23;;;;;;;6.40;3.93;;;16.50;97.20;;;;;;5032703;28;20475;-67
2021/08/16 05:45:49;;;;;;;9.20;4.93;;;16.50;97.10;;;;;;5032355;28;20038;-68
2021/08/16 05:48:17;;;;;;;8.97;4.83;;;16.60;97.20;;;;;;5031811;28;20140;-67
2021/08/16 05:50:47;;;;;;;8.23;4.37;;;16.60;97.20;;;;;;5032228;28;20112;-68
2021/08/16 05:53:16;;;;;;;9.27;4.57;;;16.60;97.20;;;;;;5031675;28;20418;-68
2021/08/16 05:55:44;;;;;;;9.27;4.73;;;16.70;97.20;;;;;;5032399;28;20057;-68
2021/08/16 05:58:11;;;;;;;11.23;4.70;;;16.60;97.20;;;;;;5032425;28;20493;-68
2021/08/16 06:00:36;;;;;;;10.03;4.30;;;16.70;97.20;;;;;;5031757;28;20053;-67
2021/08/16 06:03:02;;;;;;;9.70;4.80;;;16.70;97.20;;;;;;5032056;28;20457;-68
2021/08/16 06:05:28;;;;;;;8.57;4.10;;;16.70;97.10;;;;;;5032162;28;20072;-67
2021/08/16 06:07:53;;;;;;;10.03;4.50;;;16.70;97.10;;;;;;5031218;28;20107;-67
2021/08/16 06:10:19;;;;;;;9.23;4.10;;;16.70;96.90;;;;;;5032284;28;20049;-67
2021/08/16 06:12:45;;;;;;;9.93;4.33;;;16.80;96.90;;;;;;5031942;28;20120;-68
2021/08/16 06:15:12;;;;;;;10.10;4.03;;;16.80;96.80;;;;;;5031221;28;20136;-68
2021/08/16 06:17:40;;;;;;;10.43;4.90;;;16.80;96.80;;;;;;5031160;28;20049;-68
2021/08/16 06:20:06;;;;;;;7.23;3.70;;;16.80;96.90;;;;;;5032246;28;20471;-68
2021/08/16 06:22:33;;;;;;;8.93;3.90;;;16.80;96.80;;;;;;5031302;28;20133;-68
2021/08/16 06:25:00;;;;;;;9.07;3.63;;;16.80;96.70;;;;;;5031679;28;20107;-68
2021/08/16 06:27:26;;;;;;;7.73;4.03;;;16.80;96.70;;;;;;5031909;28;20483;-68
2021/08/16 06:29:52;;;;;;;6.90;3.50;;;16.80;96.70;;;;;;5030555;28;20418;-68
2021/08/16 06:32:17;;;;;;;7.60;3.80;;;16.80;96.60;;;;;;5036620;28;20049;-68
2021/08/16 06:34:44;;;;;;;6.67;4.17;;;16.80;96.40;;;;;;5040185;28;20049;-68
2021/08/16 06:37:10;;;;;;;7.17;4.13;;;16.80;96.50;;;;;;5041269;28;20052;-68
2021/08/16 06:39:35;;;;;;;9.30;3.83;;;16.80;96.40;;;;;;5040839;28;20388;-68
2021/08/16 06:42:01;;;;;;;8.10;3.70;;;16.90;96.40;;;;;;5040194;28;20114;-67
2021/08/16 06:44:27;;;;;;;10.73;3.80;;;16.90;96.40;;;;;;5041248;28;20466;-68
2021/08/16 06:46:54;;;;;;;6.83;3.43;;;16.90;96.40;;;;;;5039750;28;20041;-67
2021/08/16 06:49:21;;;;;;;7.10;3.43;;;17.00;96.50;;;;;;5040684;28;20045;-67
2021/08/16 06:51:47;;;;;;;4.87;3.30;;;17.10;96.40;;;;;;5040257;28;20045;-68
2021/08/16 06:54:13;;;;;;;7.13;3.37;;;17.10;96.30;;;;;;5041134;28;20509;-67
2021/08/16 06:56:38;;;;;;;6.30;3.17;;;17.10;96.30;;;;;;5040569;28;20042;-69
2021/08/16 06:59:07;;;;;;;6.57;3.20;;;17.00;96.30;;;;;;5039916;28;20041;-68
2021/08/16 07:01:32;;;;;;;5.33;3.23;;;17.00;96.20;;;;;;5040918;28;20097;-68
2021/08/16 07:03:58;;;;;;;5.47;3.20;;;17.00;96.20;;;;;;5040382;28;20607;-67
2021/08/16 07:06:25;;;;;;;5.20;3.00;;;16.90;96.20;;;;;;5040915;28;20136;-67
2021/08/16 07:08:51;;;;;;;6.57;3.10;;;16.80;96.40;;;;;;5041475;28;20053;-67
2021/08/16 07:11:17;;;;;;;5.00;2.60;;;16.80;96.40;;;;;;5038878;28;20477;-68
2021/08/16 07:13:43;;;;;;;5.47;3.07;;;16.80;96.50;;;;;;5041005;28;20049;-67
2021/08/16 07:16:09;;;;;;;6.53;2.93;;;16.80;96.70;;;;;;5041002;28;20068;-66
2021/08/16 07:18:35;;;;;;;5.47;3.53;;;16.80;96.70;;;;;;5038647;28;20049;-68
2021/08/16 07:21:05;;;;;;;6.83;3.47;;;16.80;96.70;;;;;;5032323;28;20044;-67
2021/08/16 07:23:31;;;;;;;5.90;3.07;;;16.80;96.70;;;;;;5032417;28;20091;-67
2021/08/16 07:25:59;;;;;;;5.70;3.57;;;16.80;96.60;;;;;;5031890;28;20049;-67
2021/08/16 07:28:30;;;;;;;6.33;3.30;;;16.80;96.70;;;;;;5041798;28;20494;-66
2021/08/16 07:30:57;;;;;;;;;;;16.90;96.70;;;;;;5045649;28;20075;-66
2021/08/16 07:33:23;;;;;;;8.80;2.73;;;16.90;96.50;;;;;;5043633;28;19968;-66
2021/08/16 07:35:49;;;;;;;6.10;2.30;;;16.90;96.40;;;;;;5043932;28;20045;-67
2021/08/16 07:38:14;;;;;;;7.10;2.60;;;16.90;96.40;;;;;;5045304;28;20049;-67
2021/08/16 07:40:40;;;;;;;7.10;3.13;;;16.90;96.40;;;;;;5042792;28;20111;-67
2021/08/16 07:43:06;;;;;;;7.53;2.87;;;16.90;96.40;;;;;;5044027;28;20052;-69
2021/08/16 07:45:32;;;;;;;6.50;3.00;;;17.00;96.50;;;;;;5045139;28;20057;-67
2021/08/16 07:47:57;;;;;;;7.53;2.80;;;17.00;96.30;;;;;;5041969;28;20439;-68
2021/08/16 07:50:23;;;;;;;8.23;3.00;;;17.10;96.20;;;;;;5044595;28;20140;-67
2021/08/16 07:52:49;;;;;;;7.40;3.00;;;17.10;96.10;;;;;;5043630;28;20041;-69
2021/08/16 07:55:15;;;;;;;5.70;2.63;;;17.10;96.00;;;;;;5042928;28;20557;-68
2021/08/16 07:57:41;;;;;;;9.23;2.70;;;17.10;96.00;;;;;;5043890;28;20041;-68
2021/08/16 08:00:08;;;;;;;5.43;2.77;;;17.10;96.00;;;;;;5043458;28;20052;-68
2021/08/16 08:02:45;;;;;;;5.60;2.70;;;17.10;95.90;;;;;;5042905;28;20046;-68
2021/08/16 08:05:13;;;;;;;6.10;2.17;;;17.20;95.80;;;;;;5035234;28;20045;-69
2021/08/16 08:07:39;;;;;;;7.03;2.40;;;17.20;95.70;;;;;;5033349;28;20050;-70
2021/08/16 08:10:06;;;;;;;7.03;2.30;;;17.30;95.30;;;;;;5034131;28;20486;-68
2021/08/16 08:12:32;;;;;;;5.47;2.10;;;17.30;95.00;;;;;;5033867;28;20449;-69
2021/08/16 08:14:57;;;;;;;8.00;2.10;;;17.40;94.80;;;;;;5033003;28;20121;-69
2021/08/16 08:17:23;;;;;;;7.67;2.53;;;17.40;94.00;;;;;;5046158;28;20159;-69
2021/08/16 08:19:50;;;;;;;6.80;2.00;;;17.40;93.70;;;;;;5033610;28;20053;-69
2021/08/16 08:22:18;;;;;;;7.17;1.90;;;17.40;93.30;;;;;;5033170;28;20056;-69
2021/08/16 08:24:45;;;;;;;6.43;2.13;;;17.30;92.70;;;;;;5033457;28;20049;-68
2021/08/16 08:27:13;;;;;;;4.83;2.20;;;17.30;92.70;;;;;;5034015;28;20050;-69
2021/08/16 08:29:40;;;;;;;6.40;1.80;;;17.30;92.40;;;;;;5032738;28;20057;-70
2021/08/16 08:32:06;;;;;;;8.20;2.03;;;17.30;92.30;;;;;;5033837;28;20049;-68
2021/08/16 08:34:32;;;;;;;6.57;2.27;;;17.30;92.00;;;;;;5034515;28;20140;-68
2021/08/16 08:36:57;;;;;;;7.83;2.50;;;17.20;91.70;;;;;;5042911;28;20128;-68
2021/08/16 08:39:23;;;;;;;7.43;2.67;;;17.20;91.80;;;;;;5041855;28;20049;-68
2021/08/16 08:41:51;;;;;;;7.60;2.80;;;17.20;91.70;;;;;;5052858;28;20071;-68
2021/08/16 08:44:17;;;;;;;7.17;2.30;;;17.20;91.50;;;;;;5052966;28;20163;-68
2021/08/16 08:46:42;;;;;;;5.63;2.33;;;17.10;91.40;;;;;;5052051;28;20144;-68
2021/08/16 08:49:10;;;;;;;9.37;2.73;;;17.10;91.40;;;;;;5051410;28;20573;-68
2021/08/16 08:51:37;;;;;;;6.93;2.10;;;17.10;91.40;;;;;;5053064;28;20053;-68
2021/08/16 08:54:05;;;;;;;7.93;2.77;;;17.20;91.40;;;;;;5052871;28;20552;-68
2021/08/16 08:56:32;;;;;;;7.43;2.67;;;17.20;91.20;;;;;;5052578;28;20135;-68
2021/08/16 08:58:58;;;;;;;6.37;2.53;;;17.20;91.10;;;;;;5052614;28;20049;-69
2021/08/16 09:01:24;;;;;;;7.80;2.70;;;17.20;91.00;;;;;;5053419;28;20179;-68
2021/08/16 09:03:52;;;;;;;11.00;3.07;;;17.30;90.80;;;;;;5051865;28;20053;-69
2021/08/16 09:06:27;;;;;;;9.33;2.70;;;17.40;91.00;;;;;;5052902;28;20041;-70
2021/08/16 09:08:53;;;;;;;6.20;2.90;;;17.50;90.50;;;;;;5052419;28;20079;-68
2021/08/16 09:11:19;;;;;;;8.27;2.87;;;17.80;90.90;;;;;;5052486;28;20073;-69
2021/08/16 09:14:08;;;;;;;6.63;2.67;;;18.20;91.10;;;;;;5052735;28;20124;-68
2021/08/16 09:16:36;;;;;;;16.57;3.40;;;18.50;90.20;;;;;;5053088;28;20128;-70
2021/08/16 09:19:13;;;;;;;9.40;3.00;;;18.50;89.80;;;;;;5051460;28;20132;-71
2021/08/16 09:21:41;;;;;;;9.53;3.60;;;18.50;87.30;;;;;;5052499;28;20378;-69
2021/08/16 09:24:07;;;;;;;8.97;3.10;;;18.40;88.30;;;;;;5051868;28;20079;-68
2021/08/16 09:26:36;;;;;;;10.53;2.70;;;18.20;88.30;;;;;;5052543;28;20454;-68
2021/08/16 09:29:20;;;;;;;9.37;3.30;;;18.00;88.00;;;;;;5052816;28;20049;-68
2021/08/16 09:31:53;;;;;;;9.27;3.17;;;17.80;87.50;;;;;;5051380;28;20482;-68
2021/08/16 09:34:40;;;;;;;7.03;3.00;;;17.50;88.10;;;;;;5052733;28;20381;-69
2021/08/16 09:37:25;;;;;;;8.67;2.50;;;17.30;88.70;;;;;;5052905;28;20131;-69
2021/08/16 09:39:58;;;;;;;7.27;2.60;;;17.20;88.60;;;;;;5051289;28;20064;-68
2021/08/16 09:42:24;;;;;;;6.47;2.17;;;17.10;87.50;;;;;;5052428;28;20084;-68
2021/08/16 09:44:50;;;;;;;4.53;2.03;;;17.10;87.30;;;;;;5052290;28;20056;-68
2021/08/16 09:47:16;;;;;;;6.73;1.93;;;17.10;86.90;;;;;;5051526;28;20055;-68
2021/08/16 09:49:57;;;;;;;11.67;2.60;;;17.20;86.30;;;;;;5052058;28;20052;-68
2021/08/16 09:52:29;;;;;;;10.27;2.13;;;17.10;85.70;;;;;;5051168;28;20059;-70
2021/08/16 09:54:56;;;;;;;6.90;2.43;;;17.10;86.30;;;;;;5052078;28;20049;-69
2021/08/16 09:57:23;;;;;;;7.53;1.90;;;17.00;86.60;;;;;;5052088;28;20076;-69
2021/08/16 09:59:49;;;;;;;8.63;2.00;;;16.80;86.90;;;;;;5050908;28;20052;-70
2021/08/16 10:02:16;;;;;;;8.63;1.83;;;16.70;87.50;;;;;;5052280;28;20132;-69
2021/08/16 10:04:42;;;;;;;7.63;1.93;;;16.70;88.30;;;;;;5051862;28;20041;-70
2021/08/16 10:07:10;;;;;;;6.77;1.83;;;16.60;88.60;;;;;;5051051;28;20062;-69
2021/08/16 10:09:37;;;;;;;7.47;2.40;;;16.50;89.30;;;;;;5051704;28;20053;-68
2021/08/16 10:12:04;;;;;;;6.27;1.90;;;16.50;89.80;;;;;;5051747;28;20049;-69
2021/08/16 10:14:34;;;;;;;8.27;2.07;;;16.50;90.10;;;;;;5051117;28;20072;-68
2021/08/16 10:17:02;;;;;;;5.13;1.57;;;16.60;90.10;;;;;;5051432;28;20546;-70
2021/08/16 10:19:35;;;;;;;5.33;1.57;;;16.50;90.20;;;;;;5051684;28;20056;-69
2021/08/16 10:22:02;;;;;;;4.53;1.10;;;16.50;90.10;;;;;;5050813;28;20362;-69
2021/08/16 10:24:29;;;;;;;4.93;1.30;;;16.50;89.60;;;;;;5051979;28;20422;-69
2021/08/16 10:26:56;;;;;;;4.27;1.50;;;16.60;89.10;;;;;;5052152;28;20135;-69
2021/08/16 10:29:22;;;;;;;7.23;1.50;;;16.50;88.10;;;;;;5051017;28;20391;-68
2021/08/16 10:31:53;;;;;;;9.80;2.00;;;16.60;87.80;;;;;;5051453;28;20077;-72
2021/08/16 10:34:45;;;;;;;8.40;2.25;;;16.70;87.10;;;;;;5051702;28;20531;-68
2021/08/16 10:37:12;;;;;;;8.87;2.20;;;16.70;86.90;;;;;;5050660;28;20052;-69
2021/08/16 10:39:40;;;;;;;12.13;2.67;;;16.70;86.90;;;;;;5051791;28;20049;-68
2021/08/16 10:42:13;;;;;;;12.50;3.00;;;16.80;86.60;;;;;;5050815;28;20084;-69
2021/08/16 10:44:44;;;;;;;11.03;2.57;;;16.80;87.10;;;;;;5051261;28;20359;-70
2021/08/16 10:47:22;;;;;;;8.02;2.65;;;16.90;87.00;;;;;;5051775;28;20167;-69
2021/08/16 10:49:49;;;;;;;18.23;2.97;;;16.90;86.70;;;;;;5050388;28;20497;-68
2021/08/16 10:52:20;;;;;;;11.53;2.60;;;16.90;86.40;;;;;;5051511;28;20091;-68
2021/08/16 10:54:46;;;;;;;;;;;17.00;85.70;;;;;;5051586;28;20126;-70
2021/08/16 10:57:11;;;;;;;10.40;2.93;;;16.90;84.10;;;;;;5050618;28;20020;-69
2021/08/16 10:59:37;;;;;;;10.20;2.93;;;16.90;86.00;;;;;;5051700;28;20049;-68
2021/08/16 11:02:03;;;;;;;9.70;2.73;;;17.00;87.00;;;;;;5051662;28;20060;-69
2021/08/16 11:04:34;;;;;;;12.00;2.70;;;17.00;85.00;;;;;;5053897;28;20091;-69
2021/08/16 11:07:07;;;;;;;10.35;3.47;;;17.00;84.20;;;;;;5055296;28;20125;-68
2021/08/16 11:09:36;;;;;;;7.87;2.20;;;17.00;83.90;;;;;;5055449;28;20055;-69
2021/08/16 11:12:06;;;;;;;10.93;2.60;;;17.10;83.80;;;;;;5055048;28;20517;-69
2021/08/16 11:14:41;;;;;;;10.20;2.80;;;17.10;83.20;;;;;;5055532;28;20118;-70
2021/08/16 11:17:07;;;;;;;7.27;2.47;;;17.10;81.50;;;;;;5054853;28;20061;-68
2021/08/16 11:19:43;;;;;;;8.70;3.27;;;17.20;80.20;;;;;;5035500;28;20057;-69
2021/08/16 11:22:10;;;;;;;7.80;2.20;;;17.20;77.30;;;;;;5035402;28;20045;-69
2021/08/16 11:24:37;;;;;;;10.10;2.60;;;17.30;78.30;;;;;;5034743;28;20538;-68
2021/08/16 11:27:05;;;;;;;11.13;2.70;;;17.30;76.30;;;;;;5035160;28;20077;-69
2021/08/16 11:29:31;;;;;;;8.13;2.30;;;17.30;75.40;;;;;;5035272;28;20053;-69
2021/08/16 11:32:01;;;;;;;11.17;2.50;;;17.20;75.40;;;;;;5034136;28;20052;-69
2021/08/16 11:34:32;;;;;;;9.03;2.17;;;17.20;75.50;;;;;;5035052;28;20045;-70
2021/08/16 11:36:59;;;;;;;14.07;2.70;;;17.30;74.60;;;;;;5034981;28;20049;-70
2021/08/16 11:39:29;;;;;;;12.67;2.47;;;17.30;73.50;;;;;;5034369;28;20041;-69
2021/08/16 11:42:00;;;;;;;8.50;2.85;;;17.30;73.00;;;;;;5034532;28;20060;-68
2021/08/16 11:44:27;;;;;;;8.37;2.83;;;17.30;72.70;;;;;;5035065;28;20042;-68
2021/08/16 11:46:53;;;;;;;7.10;2.33;;;17.40;72.60;;;;;;5033651;28;20472;-71
2021/08/16 11:49:19;;;;;;;12.77;2.47;;;17.40;72.10;;;;;;5034821;28;20137;-69
2021/08/16 11:51:46;;;;;;;9.73;2.73;;;17.30;71.90;;;;;;5034519;28;20384;-68
2021/08/16 11:54:22;;;;;;;13.80;2.40;;;17.30;72.30;;;;;;5034845;28;20049;-69
2021/08/16 11:56:57;;;;;;;10.47;2.33;;;17.30;72.30;;;;;;5034420;28;20077;-71
2021/08/16 11:59:23;;;;;;;11.23;2.87;;;17.10;72.80;;;;;;5034094;28;20060;-70
2021/08/16 12:01:51;;;;;;;11.00;2.40;;;17.10;74.20;;;;;;5034314;28;20049;-70
2021/08/16 12:04:17;;;;;;;9.07;2.80;;;17.10;75.00;;;;;;5034445;28;20045;-70
2021/08/16 12:06:48;;;;;;;11.20;3.43;;;17.30;75.10;;;;;;5033305;28;20045;-70
2021/08/16 12:09:13;;;;;;;11.33;2.50;;;17.40;73.50;;;;;;5034206;28;20057;-70
2021/08/16 12:11:39;;;;;;;9.23;2.67;;;17.70;72.70;;;;;;5034156;28;20453;-70
2021/08/16 12:14:05;;;;;;;9.10;2.27;;;17.90;72.60;;;;;;5033231;28;20498;-69
2021/08/16 12:16:35;;;;;;;8.07;2.73;;;17.90;71.50;;;;;;5033517;28;20106;-68
2021/08/16 12:19:02;;;;;;;8.33;2.17;;;17.70;72.30;;;;;;5049599;28;20486;-69
2021/08/16 12:21:28;;;;;;;11.53;3.23;;;17.40;73.50;;;;;;5053295;28;20065;-68
2021/08/16 12:24:05;;;;;;;14.13;2.53;;;17.30;74.10;;;;;;5053688;28;20521;-69
2021/08/16 12:26:36;;;;;;;11.93;3.03;;;17.30;74.20;;;;;;5053792;28;20080;-70
2021/08/16 12:29:03;;;;;;;11.35;2.58;;;17.30;73.70;;;;;;5052800;28;20045;-69
2021/08/16 12:31:30;;;;;;;8.97;2.43;;;17.30;72.20;;;;;;5053768;28;20053;-70
2021/08/16 12:34:03;;;;;;;7.97;2.70;;;17.30;71.30;;;;;;5053390;28;20124;-70
2021/08/16 12:36:36;;;;;;;9.07;2.33;;;17.30;71.20;;;;;;5053634;28;20048;-68
2021/08/16 12:39:07;;;;;;;10.73;2.97;;;17.40;70.70;;;;;;5053461;28;20103;-70
2021/08/16 12:41:33;;;;;;;;;;;17.50;70.10;;;;;;5053374;28;20056;-71